Time;durP1;ratioP1;P1;durP2;ratioP2;P2;SDS_P1;SDS_P2;PMS_P1;PMS_P2;Temp;Humidity;BMP_temperature;BMP_pressure;BME280_temperature;BME280_humidity;BME280_pressure;Samples;Min_cycle;Max_cycle;Signal;HPM_P1;HPM_P2
2023/06/17 00:01:17;;;;;;;8.00;4.30;;;20.30;93.80;;;;;;4963102;28;20055;-80
2023/06/17 00:03:44;;;;;;;6.35;4.43;;;20.30;94.00;;;;;;4962922;28;20051;-80
2023/06/17 00:06:11;;;;;;;6.53;4.30;;;20.30;94.20;;;;;;4961671;28;20039;-81
2023/06/17 00:08:38;;;;;;;7.80;4.55;;;20.30;94.40;;;;;;4962807;28;20110;-80
2023/06/17 00:11:05;;;;;;;4.93;3.90;;;20.20;94.60;;;;;;4961199;28;20093;-80
2023/06/17 00:13:32;;;;;;;10.10;4.03;;;20.20;94.80;;;;;;4964279;28;20102;-80
2023/06/17 00:16:00;;;;;;;7.75;4.47;;;20.10;94.70;;;;;;4952912;28;20098;-80
2023/06/17 00:18:28;;;;;;;8.50;5.15;;;20.10;94.80;;;;;;4964472;28;20050;-81
2023/06/17 00:20:57;;;;;;;5.15;4.45;;;20.00;94.80;;;;;;4961320;28;20054;-82
2023/06/17 00:23:25;;;;;;;6.60;4.70;;;20.00;94.90;;;;;;4961514;28;20070;-81
2023/06/17 00:25:52;;;;;;;8.52;4.47;;;20.00;95.00;;;;;;4952810;28;20044;-81
2023/06/17 00:28:18;;;;;;;7.75;4.57;;;19.90;95.30;;;;;;4962608;28;20120;-80
2023/06/17 00:30:46;;;;;;;9.82;4.45;;;19.90;95.50;;;;;;4959674;28;20051;-81
2023/06/17 00:33:14;;;;;;;8.77;4.85;;;19.90;95.20;;;;;;4964454;28;20054;-79
2023/06/17 00:35:41;;;;;;;6.55;4.28;;;19.80;95.10;;;;;;4956214;28;20047;-81
2023/06/17 00:38:08;;;;;;;9.48;5.15;;;19.80;95.40;;;;;;4963468;28;20085;-81
2023/06/17 00:40:35;;;;;;;5.70;3.92;;;19.70;95.50;;;;;;4957785;28;20102;-81
2023/06/17 00:43:02;;;;;;;7.05;4.78;;;19.70;95.80;;;;;;4962326;28;20059;-81
2023/06/17 00:45:29;;;;;;;5.30;4.40;;;19.60;96.00;;;;;;4959781;28;20043;-80
2023/06/17 00:47:59;;;;;;;6.32;4.43;;;19.60;96.00;;;;;;4960969;28;20047;-81
2023/06/17 00:50:28;;;;;;;8.82;4.32;;;19.60;96.00;;;;;;4957748;28;20066;-80
2023/06/17 00:52:55;;;;;;;4.82;4.03;;;19.50;95.60;;;;;;4959923;28;20039;-79
2023/06/17 00:55:22;;;;;;;6.18;5.05;;;19.50;95.40;;;;;;4960250;28;20067;-80
2023/06/17 00:57:50;;;;;;;5.65;4.00;;;19.40;95.40;;;;;;4959859;28;20047;-79
2023/06/17 01:00:17;;;;;;;5.70;4.30;;;19.40;95.30;;;;;;4974476;28;20226;-79
2023/06/17 01:02:46;;;;;;;6.38;4.70;;;19.40;95.70;;;;;;4960097;28;20047;-80
2023/06/17 01:05:16;;;;;;;8.00;4.43;;;19.40;95.80;;;;;;4959262;28;20094;-80
2023/06/17 01:08:05;;;;;;;;;;;19.30;96.00;;;;;;4950021;28;20044;-80
2023/06/17 01:11:09;;;;;;;7.55;4.55;;;19.30;96.20;;;;;;4958096;28;19923;-79
2023/06/17 01:13:36;;;;;;;7.40;4.38;;;19.20;96.00;;;;;;4959046;28;20044;-80
2023/06/17 01:16:04;;;;;;;7.22;4.50;;;19.20;95.90;;;;;;4958944;28;20047;-80
2023/06/17 01:18:32;;;;;;;6.55;4.50;;;19.10;95.90;;;;;;4959491;28;20047;-81
2023/06/17 01:20:59;;;;;;;4.78;4.28;;;19.10;96.00;;;;;;4957642;28;20047;-80
2023/06/17 01:23:33;;;;;;;5.72;4.28;;;19.10;96.10;;;;;;4957248;28;20057;-79
2023/06/17 01:26:01;;;;;;;6.65;4.55;;;19.00;96.10;;;;;;4957151;28;20092;-81
2023/06/17 01:28:29;;;;;;;4.85;4.25;;;19.00;96.10;;;;;;4958926;28;20101;-79
2023/06/17 01:30:57;;;;;;;6.53;4.93;;;19.00;96.10;;;;;;4972244;28;20044;-80
2023/06/17 01:33:25;;;;;;;12.80;4.28;;;18.90;96.00;;;;;;4959238;28;20097;-80
2023/06/17 01:36:01;;;;;;;8.32;4.65;;;18.90;96.00;;;;;;4957111;28;20129;-79
2023/06/17 01:38:34;;;;;;;8.70;4.72;;;18.90;96.00;;;;;;4969733;28;20051;-77
2023/06/17 01:41:04;;;;;;;7.80;4.28;;;18.90;96.50;;;;;;4971284;28;20125;-80
2023/06/17 01:43:34;;;;;;;8.50;4.78;;;18.90;96.10;;;;;;4954689;28;20130;-79
2023/06/17 01:46:02;;;;;;;8.77;4.65;;;18.90;96.10;;;;;;4957529;28;20043;-80
2023/06/17 01:48:29;;;;;;;5.93;4.50;;;18.80;96.10;;;;;;4957206;28;20043;-79
2023/06/17 01:50:56;;;;;;;6.13;4.38;;;18.80;95.90;;;;;;4957357;28;20058;-80
2023/06/17 01:53:24;;;;;;;9.25;5.00;;;18.80;95.90;;;;;;4957618;28;20047;-80
2023/06/17 01:55:52;;;;;;;5.63;4.30;;;18.80;96.20;;;;;;4970927;28;20071;-79
2023/06/17 01:58:19;;;;;;;6.65;4.88;;;18.80;96.20;;;;;;4956356;28;20082;-80
2023/06/17 02:00:46;;;;;;;5.90;4.55;;;18.70;96.20;;;;;;4947706;28;20047;-80
2023/06/17 02:03:13;;;;;;;7.53;4.95;;;18.70;96.50;;;;;;4956322;28;20106;-80
2023/06/17 02:05:39;;;;;;;6.38;4.32;;;18.70;96.50;;;;;;4957306;28;20077;-81
2023/06/17 02:08:06;;;;;;;4.90;4.25;;;18.60;96.50;;;;;;4956165;28;20075;-80
2023/06/17 02:10:33;;;;;;;7.53;5.10;;;18.60;96.40;;;;;;4956262;28;20054;-79
2023/06/17 02:13:03;;;;;;;6.90;4.30;;;18.60;96.50;;;;;;4958393;28;20047;-80
2023/06/17 02:15:30;;;;;;;7.70;5.05;;;18.50;96.40;;;;;;4959877;28;20055;-79
2023/06/17 02:17:58;;;;;;;5.75;4.57;;;18.50;96.50;;;;;;4955751;28;20051;-81
2023/06/17 02:20:26;;;;;;;5.60;4.40;;;18.50;96.60;;;;;;4959218;28;20146;-80
2023/06/17 02:22:53;;;;;;;5.97;4.40;;;18.50;96.40;;;;;;4959797;28;20509;-79
2023/06/17 02:25:19;;;;;;;8.98;5.18;;;18.40;96.40;;;;;;4969884;28;20130;-80
2023/06/17 02:27:46;;;;;;;7.20;5.05;;;18.40;96.30;;;;;;4959503;28;20071;-80
2023/06/17 02:30:13;;;;;;;6.95;4.28;;;18.40;96.40;;;;;;4958096;28;20075;-80
2023/06/17 02:32:40;;;;;;;5.15;4.38;;;18.40;96.70;;;;;;4960374;28;20111;-80
2023/06/17 02:35:07;;;;;;;6.28;4.50;;;18.40;97.00;;;;;;4957762;28;20523;-80
2023/06/17 02:37:34;;;;;;;4.90;4.18;;;18.30;96.70;;;;;;4962046;28;20043;-79
2023/06/17 02:40:01;;;;;;;5.18;4.53;;;18.30;97.10;;;;;;4957049;28;20147;-80
2023/06/17 02:42:28;;;;;;;5.07;4.25;;;18.30;97.00;;;;;;4963237;28;20051;-80
2023/06/17 02:44:54;;;;;;;8.23;4.82;;;18.30;97.00;;;;;;4956794;28;20418;-80
2023/06/17 02:47:21;;;;;;;7.03;4.25;;;18.20;96.80;;;;;;4962489;28;20148;-80
2023/06/17 02:49:48;;;;;;;9.65;5.15;;;18.20;96.90;;;;;;4973942;28;20047;-79
2023/06/17 02:52:14;;;;;;;8.05;5.22;;;18.20;96.80;;;;;;4965814;28;20098;-79
2023/06/17 02:54:42;;;;;;;8.68;5.00;;;18.20;96.70;;;;;;4959109;28;20040;-79
2023/06/17 02:57:09;;;;;;;7.82;4.90;;;18.20;96.70;;;;;;4964699;28;20098;-79
2023/06/17 02:59:37;;;;;;;9.00;5.07;;;18.10;96.60;;;;;;4959480;28;20051;-80
2023/06/17 03:02:04;;;;;;;6.60;4.38;;;18.10;96.70;;;;;;4962420;28;20050;-81
2023/06/17 03:04:35;;;;;;;7.40;5.32;;;18.10;97.30;;;;;;4960005;28;20051;-80
2023/06/17 03:07:05;;;;;;;8.70;4.45;;;18.10;97.10;;;;;;4950859;28;20540;-80
2023/06/17 03:09:32;;;;;;;5.72;4.70;;;18.10;97.30;;;;;;4958250;28;20130;-80
2023/06/17 03:12:02;;;;;;;7.85;4.63;;;18.00;97.30;;;;;;4963164;28;20501;-79
2023/06/17 03:14:29;;;;;;;7.73;5.43;;;18.00;97.40;;;;;;4975412;28;20053;-79
2023/06/17 03:17:00;;;;;;;5.97;4.97;;;18.00;97.70;;;;;;4962172;28;20053;-80
2023/06/17 03:19:28;;;;;;;5.78;4.50;;;18.00;97.70;;;;;;4951652;28;20134;-81
2023/06/17 03:21:54;;;;;;;8.75;4.85;;;18.00;97.90;;;;;;4962269;28;20134;-79
2023/06/17 03:24:23;;;;;;;7.55;4.93;;;17.90;98.10;;;;;;4960199;28;20051;-80
2023/06/17 03:26:51;;;;;;;6.40;4.68;;;17.90;97.90;;;;;;4949180;28;20059;-78
2023/06/17 03:29:17;;;;;;;9.20;5.28;;;17.90;98.00;;;;;;4959812;28;20055;-79
2023/06/17 03:31:44;;;;;;;6.75;4.60;;;17.90;97.70;;;;;;4961925;28;20054;-79
2023/06/17 03:34:11;;;;;;;5.88;4.75;;;17.80;97.10;;;;;;4962265;28;20050;-81
2023/06/17 03:36:39;;;;;;;8.15;5.00;;;17.80;97.30;;;;;;4962534;28;20043;-79
2023/06/17 03:39:06;;;;;;;10.05;5.57;;;17.70;97.20;;;;;;4972997;28;20051;-80
2023/06/17 03:41:33;;;;;;;8.38;4.65;;;17.70;97.20;;;;;;4959116;28;20046;-79
2023/06/17 03:44:00;;;;;;;8.90;4.95;;;17.70;97.30;;;;;;4960111;28;20489;-80
2023/06/17 03:46:26;;;;;;;5.85;4.50;;;17.70;97.70;;;;;;4952128;28;20054;-81
2023/06/17 03:48:53;;;;;;;7.55;4.70;;;17.70;97.10;;;;;;4959666;28;20401;-81
2023/06/17 03:51:20;;;;;;;12.95;5.57;;;17.60;97.00;;;;;;4961530;28;20047;-80
2023/06/17 03:53:46;;;;;;;6.82;4.45;;;17.60;96.70;;;;;;4961126;28;20075;-80
2023/06/17 03:56:13;;;;;;;8.57;4.75;;;17.70;96.80;;;;;;4960688;28;20043;-80
2023/06/17 03:58:40;;;;;;;6.15;4.55;;;17.70;96.70;;;;;;4959405;28;20047;-79
2023/06/17 04:01:07;;;;;;;8.52;5.13;;;17.70;96.90;;;;;;4960454;28;20070;-80
2023/06/17 04:03:34;;;;;;;7.47;4.38;;;17.60;97.30;;;;;;4961702;28;20046;-80
2023/06/17 04:06:01;;;;;;;6.70;4.68;;;17.70;97.60;;;;;;4975037;28;20046;-80
2023/06/17 04:08:27;;;;;;;7.45;4.57;;;17.70;97.70;;;;;;4947188;28;20051;-81
2023/06/17 04:10:54;;;;;;;7.28;4.85;;;17.80;97.90;;;;;;4959836;28;20047;-81
2023/06/17 04:13:21;;;;;;;8.80;5.45;;;17.70;97.90;;;;;;4957102;28;20052;-80
2023/06/17 04:15:48;;;;;;;6.43;5.18;;;17.80;97.60;;;;;;4960141;28;20055;-80
2023/06/17 04:18:14;;;;;;;10.15;5.43;;;17.80;97.40;;;;;;4960990;28;20063;-81
2023/06/17 04:20:41;;;;;;;6.60;4.72;;;17.80;97.90;;;;;;4959369;28;20067;-80
2023/06/17 04:23:08;;;;;;;6.53;5.32;;;17.90;98.10;;;;;;4959424;28;20043;-81
2023/06/17 04:25:37;;;;;;;5.93;4.75;;;17.90;98.10;;;;;;4960293;28;20051;-79
2023/06/17 04:28:07;;;;;;;8.27;4.80;;;17.90;98.10;;;;;;4958731;28;20047;-79
2023/06/17 04:30:34;;;;;;;6.07;5.25;;;17.90;98.10;;;;;;4948312;28;20046;-79
2023/06/17 04:33:01;;;;;;;6.22;4.65;;;17.90;98.40;;;;;;4946778;28;20055;-80
2023/06/17 04:35:28;;;;;;;9.05;5.20;;;17.90;98.50;;;;;;4973090;28;20063;-79
2023/06/17 04:37:55;;;;;;;9.27;4.93;;;17.90;98.60;;;;;;4956000;28;20043;-79
2023/06/17 04:40:23;;;;;;;6.03;4.18;;;18.00;98.60;;;;;;4958276;28;20063;-80
2023/06/17 04:42:50;;;;;;;7.10;4.72;;;18.00;98.60;;;;;;4957539;28;20130;-81
2023/06/17 04:45:17;;;;;;;7.18;4.78;;;18.10;98.60;;;;;;4951048;28;20666;-81
2023/06/17 04:47:45;;;;;;;6.53;4.70;;;18.10;98.70;;;;;;4954896;28;20044;-82
2023/06/17 04:50:15;;;;;;;5.68;4.95;;;18.10;98.70;;;;;;4956625;28;20039;-81
2023/06/17 04:52:42;;;;;;;;;;;18.20;98.80;;;;;;4955177;28;20054;-82
2023/06/17 04:55:13;;;;;;;7.50;5.10;;;18.30;98.70;;;;;;4957206;28;20403;-82
2023/06/17 04:57:43;;;;;;;8.95;4.82;;;18.40;98.80;;;;;;4957792;28;20051;-81
2023/06/17 05:00:12;;;;;;;6.43;4.55;;;18.50;98.70;;;;;;4955028;28;20105;-80
2023/06/17 05:02:39;;;;;;;5.85;4.78;;;18.60;98.20;;;;;;4956467;28;20054;-81
2023/06/17 05:05:07;;;;;;;6.85;4.88;;;18.70;98.50;;;;;;4947995;28;20047;-82
2023/06/17 05:07:34;;;;;;;6.60;5.00;;;18.80;98.40;;;;;;4958334;28;20042;-81
2023/06/17 05:10:01;;;;;;;5.72;4.68;;;19.00;98.40;;;;;;4961661;28;20066;-81
2023/06/17 05:12:28;;;;;;;6.30;4.80;;;19.10;98.30;;;;;;4961075;28;20051;-80
2023/06/17 05:14:55;;;;;;;10.65;5.03;;;19.20;98.30;;;;;;4960800;28;20094;-81
2023/06/17 05:17:21;;;;;;;8.23;4.70;;;19.30;98.20;;;;;;4955788;28;20110;-81
2023/06/17 05:19:49;;;;;;;7.30;5.03;;;19.40;98.10;;;;;;4961358;28;20046;-80
2023/06/17 05:22:16;;;;;;;6.28;4.60;;;19.50;98.00;;;;;;4962587;28;20410;-81
2023/06/17 05:24:43;;;;;;;5.85;4.38;;;19.60;97.90;;;;;;4958946;28;20102;-81
2023/06/17 05:27:10;;;;;;;6.72;4.75;;;19.70;98.00;;;;;;4961434;28;20083;-81
2023/06/17 05:29:37;;;;;;;7.68;4.95;;;19.80;97.80;;;;;;4960197;28;20043;-80
2023/06/17 05:32:06;;;;;;;10.38;4.72;;;19.90;97.50;;;;;;4958159;28;20118;-82
2023/06/17 05:34:33;;;;;;;7.60;5.25;;;20.00;97.50;;;;;;4960165;28;20046;-81
2023/06/17 05:37:00;;;;;;;5.55;4.88;;;20.00;97.30;;;;;;4959745;28;20051;-81
2023/06/17 05:39:27;;;;;;;6.10;4.25;;;20.10;97.50;;;;;;4961503;28;20080;-81
2023/06/17 05:41:53;;;;;;;8.38;5.03;;;20.10;97.80;;;;;;4962843;28;20044;-83
2023/06/17 05:44:20;;;;;;;8.77;5.10;;;20.20;97.40;;;;;;4959787;28;20134;-82
2023/06/17 05:46:47;;;;;;;8.73;5.57;;;20.20;96.80;;;;;;4963088;28;20481;-80
2023/06/17 05:49:15;;;;;;;6.40;5.70;;;20.20;97.00;;;;;;4958304;28;20047;-81
2023/06/17 05:51:42;;;;;;;10.52;5.65;;;20.20;97.30;;;;;;4961628;28;20126;-82
2023/06/17 05:54:09;;;;;;;8.15;5.43;;;20.20;97.40;;;;;;4957480;28;20047;-81
2023/06/17 05:56:36;;;;;;;8.77;5.72;;;20.20;96.80;;;;;;4962322;28;20057;-80
2023/06/17 05:59:02;;;;;;;7.40;5.15;;;20.20;96.90;;;;;;4957196;28;20420;-80
2023/06/17 06:01:29;;;;;;;7.43;5.75;;;20.20;97.20;;;;;;4961808;28;20525;-80
2023/06/17 06:03:56;;;;;;;11.68;5.85;;;20.10;96.90;;;;;;4956998;28;20051;-80
2023/06/17 06:06:23;;;;;;;11.73;7.13;;;20.20;97.10;;;;;;4962284;28;20066;-80
2023/06/17 06:08:50;;;;;;;7.25;6.03;;;20.20;97.10;;;;;;4955059;28;20501;-81
2023/06/17 06:11:17;;;;;;;8.52;6.03;;;20.20;97.10;;;;;;4958536;28;20094;-80
2023/06/17 06:13:44;;;;;;;7.18;6.10;;;20.20;97.10;;;;;;4959760;28;20081;-81
2023/06/17 06:16:10;;;;;;;10.48;5.95;;;20.20;97.50;;;;;;4961177;28;20047;-80
2023/06/17 06:18:37;;;;;;;13.55;6.25;;;20.20;97.50;;;;;;4975110;28;20039;-81
2023/06/17 06:21:05;;;;;;;8.95;6.00;;;20.10;97.50;;;;;;4960621;28;20524;-81
2023/06/17 06:23:33;;;;;;;9.18;5.80;;;20.10;97.70;;;;;;4961998;28;20051;-81
2023/06/17 06:26:00;;;;;;;15.05;6.78;;;20.20;97.90;;;;;;4960404;28;20043;-81
2023/06/17 06:28:27;;;;;;;7.88;6.30;;;20.10;97.30;;;;;;4961565;28;20090;-82
2023/06/17 06:30:53;;;;;;;9.60;5.80;;;20.20;97.00;;;;;;4964169;28;20039;-82
2023/06/17 06:33:22;;;;;;;9.70;6.00;;;20.20;97.10;;;;;;4963883;28;20102;-82
2023/06/17 06:35:49;;;;;;;9.77;6.28;;;20.20;97.20;;;;;;4964094;28;20047;-81
2023/06/17 06:38:16;;;;;;;10.30;5.70;;;20.30;97.70;;;;;;4962179;28;20058;-82
2023/06/17 06:40:43;;;;;;;6.38;5.45;;;20.30;97.70;;;;;;4963851;28;20053;-81
2023/06/17 06:43:09;;;;;;;11.18;6.47;;;20.40;97.80;;;;;;4961997;28;20051;-80
2023/06/17 06:45:36;;;;;;;9.10;5.57;;;20.40;97.80;;;;;;4964702;28;20129;-81
2023/06/17 06:48:03;;;;;;;7.25;5.28;;;20.40;98.00;;;;;;4958312;28;20047;-82
2023/06/17 06:50:30;;;;;;;7.45;5.78;;;20.40;97.60;;;;;;4960204;28;20059;-81
2023/06/17 06:52:57;;;;;;;9.15;5.80;;;20.50;97.50;;;;;;4957568;28;20066;-82
2023/06/17 06:55:24;;;;;;;10.13;5.53;;;20.50;97.40;;;;;;4954100;28;20058;-81
2023/06/17 06:57:50;;;;;;;8.63;5.30;;;20.50;97.30;;;;;;4959123;28;20047;-81
2023/06/17 07:00:18;;;;;;;6.95;5.85;;;20.50;97.60;;;;;;4959490;28;20059;-81
2023/06/17 07:02:45;;;;;;;8.63;6.10;;;20.50;98.20;;;;;;4959465;28;20105;-81
2023/06/17 07:05:12;;;;;;;8.65;5.78;;;20.60;98.50;;;;;;4974232;28;20054;-81
2023/06/17 07:07:39;;;;;;;12.80;6.03;;;20.60;98.30;;;;;;4960094;28;20062;-82
2023/06/17 07:10:06;;;;;;;9.93;5.97;;;20.70;98.30;;;;;;4974841;28;20098;-81
2023/06/17 07:12:33;;;;;;;12.25;6.80;;;20.70;98.40;;;;;;4974146;28;20062;-82
2023/06/17 07:15:00;;;;;;;11.43;5.82;;;20.70;98.80;;;;;;4974343;28;20059;-82
2023/06/17 07:17:26;;;;;;;8.10;5.82;;;20.80;98.80;;;;;;4959458;28;20079;-82
2023/06/17 07:19:55;;;;;;;10.88;6.22;;;20.80;98.30;;;;;;4955411;28;20047;-81
2023/06/17 07:22:21;;;;;;;10.10;7.00;;;20.80;99.00;;;;;;4958350;28;20051;-81
2023/06/17 07:24:48;;;;;;;7.72;6.22;;;20.80;99.30;;;;;;4954526;28;20071;-81
2023/06/17 07:27:15;;;;;;;10.88;6.00;;;20.90;99.70;;;;;;4957993;28;20121;-81
2023/06/17 07:29:42;;;;;;;12.45;6.53;;;20.90;99.50;;;;;;4959053;28;20070;-82
2023/06/17 07:32:08;;;;;;;8.10;6.03;;;21.00;99.10;;;;;;4960944;28;20043;-81
2023/06/17 07:34:35;;;;;;;8.40;6.40;;;21.00;99.00;;;;;;4957800;28;20568;-81
2023/06/17 07:37:02;;;;;;;12.60;5.82;;;21.10;99.30;;;;;;4974013;28;20051;-82
2023/06/17 07:39:29;;;;;;;8.68;6.18;;;21.10;99.10;;;;;;4953182;28;20382;-81
2023/06/17 07:41:56;;;;;;;12.45;6.38;;;21.10;99.60;;;;;;4958047;28;20094;-81
2023/06/17 07:44:22;;;;;;;9.23;5.47;;;21.10;99.80;;;;;;4955097;28;20122;-81
2023/06/17 07:46:49;;;;;;;10.40;6.68;;;21.20;99.70;;;;;;4958894;28;20489;-81
2023/06/17 07:49:16;;;;;;;9.98;5.60;;;21.20;99.60;;;;;;4958721;28;20047;-81
2023/06/17 07:51:43;;;;;;;8.07;5.38;;;21.30;99.70;;;;;;4959337;28;20365;-81
2023/06/17 07:54:09;;;;;;;12.43;5.78;;;21.30;99.10;;;;;;4958514;28;20420;-81
2023/06/17 07:56:36;;;;;;;7.25;5.65;;;21.40;98.40;;;;;;4972646;28;20046;-80
2023/06/17 07:59:03;;;;;;;12.07;6.05;;;21.40;98.30;;;;;;4949772;28;20118;-82
2023/06/17 08:01:29;;;;;;;7.78;5.57;;;21.40;97.70;;;;;;4952009;28;20043;-81
2023/06/17 08:03:56;;;;;;;6.97;5.72;;;21.50;98.40;;;;;;4963139;28;20043;-81
2023/06/17 08:06:23;;;;;;;13.30;5.32;;;21.50;98.20;;;;;;4960238;28;20052;-81
2023/06/17 08:08:50;;;;;;;8.48;5.93;;;21.60;98.50;;;;;;4958175;28;20043;-80
2023/06/17 08:11:17;;;;;;;13.30;5.43;;;21.70;98.60;;;;;;4958000;28;20086;-81
2023/06/17 08:13:43;;;;;;;8.10;5.75;;;21.70;97.70;;;;;;4954996;29;20043;-82
2023/06/17 08:16:11;;;;;;;7.10;5.50;;;21.80;97.90;;;;;;4957702;29;20456;-81
2023/06/17 08:18:38;;;;;;;7.55;5.63;;;21.80;98.00;;;;;;4960713;28;20051;-82
2023/06/17 08:21:05;;;;;;;8.77;5.75;;;21.90;97.50;;;;;;4962560;28;20051;-82
2023/06/17 08:23:31;;;;;;;8.13;5.57;;;21.90;98.30;;;;;;4964717;28;20087;-81
2023/06/17 08:25:58;;;;;;;10.27;5.95;;;22.00;97.50;;;;;;4962159;28;20047;-82
2023/06/17 08:28:25;;;;;;;9.52;6.10;;;22.10;96.70;;;;;;4955952;28;20058;-82
2023/06/17 08:30:52;;;;;;;10.15;5.70;;;22.10;96.50;;;;;;4958296;28;20055;-82
2023/06/17 08:33:19;;;;;;;7.65;5.32;;;22.10;96.60;;;;;;4973318;28;20551;-82
2023/06/17 08:35:45;;;;;;;10.50;6.00;;;22.20;97.30;;;;;;4955620;29;20575;-81
2023/06/17 08:38:12;;;;;;;9.52;5.40;;;22.30;97.80;;;;;;4958832;28;20043;-81
2023/06/17 08:40:44;;;;;;;9.68;5.03;;;22.40;97.60;;;;;;4958347;28;20413;-82
2023/06/17 08:43:15;;;;;;;6.10;5.05;;;22.40;96.90;;;;;;4955690;29;20070;-82
2023/06/17 08:45:42;;;;;;;15.07;6.25;;;22.50;96.70;;;;;;4953915;28;20054;-81
2023/06/17 08:48:10;;;;;;;9.32;5.85;;;22.60;96.70;;;;;;4955001;28;20066;-81
2023/06/17 08:50:38;;;;;;;12.35;5.35;;;22.60;96.90;;;;;;4972061;28;20106;-81
2023/06/17 08:53:05;;;;;;;8.15;5.72;;;22.70;96.20;;;;;;4961435;28;20165;-81
2023/06/17 08:55:32;;;;;;;9.40;5.55;;;22.70;95.10;;;;;;4960027;28;20067;-80
2023/06/17 08:57:59;;;;;;;9.93;5.35;;;22.80;95.30;;;;;;4955250;28;20134;-81
2023/06/17 09:00:26;;;;;;;10.15;6.05;;;22.80;95.40;;;;;;4958542;28;20063;-82
2023/06/17 09:02:58;;;;;;;13.68;5.43;;;22.90;96.00;;;;;;4956291;28;20080;-81
2023/06/17 09:05:25;;;;;;;10.55;6.10;;;23.00;96.00;;;;;;4978266;28;20090;-81
2023/06/17 09:07:52;;;;;;;8.70;5.95;;;23.00;95.60;;;;;;4955329;28;20086;-80
2023/06/17 09:10:19;;;;;;;11.45;5.35;;;23.10;95.90;;;;;;4949202;28;20058;-81
2023/06/17 09:12:46;;;;;;;8.25;5.90;;;23.10;95.90;;;;;;4948837;29;20047;-81
2023/06/17 09:15:17;;;;;;;13.23;5.78;;;23.20;95.50;;;;;;4968469;28;20412;-81
2023/06/17 09:17:45;;;;;;;10.98;5.90;;;23.20;96.30;;;;;;4958627;28;20081;-82
2023/06/17 09:20:16;;;;;;;14.38;5.72;;;23.30;96.10;;;;;;4974239;28;20142;-81
2023/06/17 09:22:45;;;;;;;10.77;5.53;;;23.30;96.10;;;;;;4951139;28;20370;-81
2023/06/17 09:25:14;;;;;;;14.10;6.20;;;23.40;95.90;;;;;;4951438;29;20127;-82
2023/06/17 09:27:46;;;;;;;9.50;5.97;;;23.40;95.60;;;;;;4959093;28;20082;-82
2023/06/17 09:30:35;;;;;;;10.48;5.40;;;23.50;96.10;;;;;;4969365;28;20075;-82
2023/06/17 09:33:02;;;;;;;10.63;5.15;;;23.50;95.60;;;;;;4954453;29;20157;-81
2023/06/17 09:35:33;;;;;;;9.15;5.22;;;23.60;95.20;;;;;;4960726;28;20051;-82
2023/06/17 09:38:03;;;;;;;8.30;5.30;;;23.70;94.70;;;;;;4954991;28;20051;-82
2023/06/17 09:40:33;;;;;;;7.80;5.43;;;23.70;94.80;;;;;;4961857;28;20065;-81
2023/06/17 09:43:01;;;;;;;;;;;23.80;95.00;;;;;;4973903;28;20050;-82
2023/06/17 09:45:49;;;;;;;12.30;6.07;;;23.80;94.30;;;;;;4958085;28;19985;-82
2023/06/17 09:48:17;;;;;;;6.30;5.00;;;23.90;95.00;;;;;;4950631;28;20509;-81
2023/06/17 09:50:44;;;;;;;10.98;5.72;;;23.90;93.80;;;;;;4959412;28;20078;-82
2023/06/17 09:53:11;;;;;;;11.40;5.22;;;24.00;93.40;;;;;;4960010;28;20118;-82
2023/06/17 09:55:38;;;;;;;5.75;5.00;;;24.00;93.80;;;;;;4958721;28;20051;-82
2023/06/17 09:58:06;;;;;;;6.03;5.40;;;24.10;93.30;;;;;;4956028;28;20051;-81
2023/06/17 10:00:34;;;;;;;8.23;4.78;;;24.20;93.00;;;;;;4961440;28;20078;-82
2023/06/17 10:03:01;;;;;;;9.00;4.95;;;24.20;91.90;;;;;;4961028;28;20054;-82
2023/06/17 10:05:28;;;;;;;5.60;4.53;;;24.30;92.40;;;;;;4965531;28;20429;-82
2023/06/17 10:07:56;;;;;;;8.52;4.40;;;24.30;91.80;;;;;;4959695;28;20047;-81
2023/06/17 10:10:24;;;;;;;7.72;5.20;;;24.40;91.30;;;;;;4963283;28;20054;-81
2023/06/17 10:12:54;;;;;;;7.53;4.57;;;24.50;91.00;;;;;;4958607;29;20277;-81
2023/06/17 10:15:22;;;;;;;11.77;4.10;;;24.50;90.60;;;;;;4959873;29;20067;-80
2023/06/17 10:17:52;;;;;;;6.03;3.92;;;24.50;90.10;;;;;;4960252;28;20584;-79
2023/06/17 10:20:20;;;;;;;7.32;4.50;;;24.50;88.90;;;;;;4968250;28;20070;-80
2023/06/17 10:22:54;;;;;;;6.00;4.00;;;24.60;88.70;;;;;;4974233;28;20047;-79
2023/06/17 10:25:21;;;;;;;5.85;3.65;;;24.70;87.00;;;;;;4968463;28;20055;-80
2023/06/17 10:27:47;;;;;;;5.75;3.60;;;24.70;84.70;;;;;;4957234;28;20102;-79
2023/06/17 10:30:28;;;;;;;3.85;3.40;;;24.80;82.90;;;;;;4957953;28;20051;-79
2023/06/17 10:32:58;;;;;;;7.68;3.78;;;24.90;83.90;;;;;;4962885;28;20455;-80
2023/06/17 10:35:39;;;;;;;4.80;3.28;;;24.90;83.80;;;;;;4958263;28;20058;-80
2023/06/17 10:38:08;;;;;;;7.88;3.55;;;25.00;84.90;;;;;;4961599;28;20483;-79
2023/06/17 10:40:46;;;;;;;4.38;3.28;;;25.00;84.90;;;;;;4959364;28;20544;-79
2023/06/17 10:43:17;;;;;;;9.40;3.72;;;25.00;85.00;;;;;;4961822;28;20074;-80
2023/06/17 10:45:57;;;;;;;5.47;3.70;;;25.10;84.50;;;;;;4951846;28;20178;-82
2023/06/17 10:48:35;;;;;;;4.88;3.55;;;25.10;84.20;;;;;;4961984;28;20080;-82
2023/06/17 10:51:08;;;;;;;5.75;3.63;;;25.20;83.90;;;;;;4960506;28;20102;-82
2023/06/17 10:53:36;;;;;;;4.43;3.28;;;25.20;83.70;;;;;;4975775;28;20047;-81
2023/06/17 10:56:09;;;;;;;4.03;3.38;;;25.20;83.30;;;;;;4978782;28;20107;-81
2023/06/17 10:58:44;;;;;;;4.38;3.25;;;25.20;82.90;;;;;;4960487;28;20513;-80
2023/06/17 11:01:13;;;;;;;6.25;3.30;;;25.30;84.40;;;;;;4958791;28;20050;-83
2023/06/17 11:03:40;;;;;;;4.95;3.72;;;25.30;85.10;;;;;;4962958;28;20102;-82
2023/06/17 11:06:09;;;;;;;7.55;3.83;;;25.30;85.30;;;;;;4959384;28;20051;-83
2023/06/17 11:08:37;;;;;;;5.95;3.42;;;25.40;86.20;;;;;;4965994;28;20055;-82
2023/06/17 11:11:16;;;;;;;7.50;3.58;;;25.40;86.20;;;;;;4959101;28;20126;-82
2023/06/17 11:13:50;;;;;;;6.75;3.97;;;25.50;83.50;;;;;;4960789;28;20051;-81
2023/06/17 11:16:18;;;;;;;6.68;3.65;;;25.50;81.80;;;;;;4963501;28;20106;-82
2023/06/17 11:18:46;;;;;;;4.90;3.65;;;25.50;83.50;;;;;;4963646;28;20075;-83
2023/06/17 11:21:17;;;;;;;5.78;3.40;;;25.60;81.40;;;;;;4959518;28;20051;-82
2023/06/17 11:23:44;;;;;;;5.13;3.15;;;25.60;82.00;;;;;;4961043;28;20138;-82
2023/06/17 11:26:11;;;;;;;8.25;3.75;;;25.70;82.50;;;;;;4959656;28;20079;-81
2023/06/17 11:28:39;;;;;;;6.50;3.58;;;25.70;83.40;;;;;;4960988;28;20043;-78
2023/06/17 11:31:07;;;;;;;6.00;3.78;;;25.70;81.40;;;;;;4957366;28;20051;-83
2023/06/17 11:33:35;;;;;;;7.40;3.55;;;25.70;83.40;;;;;;4960191;28;20453;-80
2023/06/17 11:36:09;;;;;;;6.05;3.90;;;25.80;83.60;;;;;;4972078;28;20050;-80
2023/06/17 11:38:37;;;;;;;8.98;3.70;;;25.80;82.70;;;;;;4959177;28;20073;-79
2023/06/17 11:41:04;;;;;;;5.53;3.67;;;25.90;80.90;;;;;;4961188;28;20492;-80
2023/06/17 11:43:31;;;;;;;5.13;3.58;;;25.90;80.90;;;;;;4959194;28;20055;-80
2023/06/17 11:45:58;;;;;;;6.47;3.75;;;25.90;83.00;;;;;;4959004;28;20063;-80
2023/06/17 11:48:46;;;;;;;5.15;3.65;;;26.00;81.50;;;;;;4960509;28;20051;-80
2023/06/17 11:51:17;;;;;;;4.45;3.28;;;26.00;80.60;;;;;;4957753;28;20051;-80
2023/06/17 11:53:46;;;;;;;4.32;3.75;;;26.00;81.80;;;;;;4958914;28;20039;-78
2023/06/17 11:56:15;;;;;;;7.50;3.22;;;26.00;82.70;;;;;;4957920;28;20071;-81
2023/06/17 11:58:43;;;;;;;7.07;3.95;;;26.10;82.40;;;;;;4956552;28;20086;-82
2023/06/17 12:01:12;;;;;;;4.82;3.10;;;26.10;82.40;;;;;;4959205;28;20520;-82
2023/06/17 12:03:44;;;;;;;7.20;3.67;;;26.10;80.60;;;;;;4959372;29;20127;-84
2023/06/17 12:06:18;;;;;;;4.55;3.28;;;26.20;82.50;;;;;;4957154;28;20130;-80
2023/06/17 12:08:55;;;;;;;5.93;3.30;;;26.20;81.80;;;;;;4957313;28;20501;-82
2023/06/17 12:11:29;;;;;;;5.43;3.60;;;26.30;81.20;;;;;;4961156;29;20051;-83
2023/06/17 12:13:57;;;;;;;8.68;3.97;;;26.30;82.40;;;;;;4976902;28;20403;-82
2023/06/17 12:16:34;;;;;;;8.60;4.30;;;26.40;81.30;;;;;;4961746;28;20051;-83
2023/06/17 12:19:04;;;;;;;4.78;3.60;;;26.40;81.70;;;;;;4960300;28;20047;-84
2023/06/17 12:21:30;;;;;;;6.57;3.53;;;26.50;81.90;;;;;;4951384;28;20055;-82
2023/06/17 12:23:57;;;;;;;10.57;4.18;;;26.50;81.20;;;;;;4958418;28;20318;-81
2023/06/17 12:26:26;;;;;;;4.72;3.50;;;26.60;80.90;;;;;;4974020;28;20071;-82
2023/06/17 12:28:54;;;;;;;8.10;3.45;;;26.60;80.20;;;;;;4972292;28;20074;-82
2023/06/17 12:31:21;;;;;;;5.95;4.03;;;26.70;81.40;;;;;;4960126;28;20047;-81
2023/06/17 12:33:49;;;;;;;7.95;4.05;;;26.70;81.40;;;;;;4946750;28;20521;-81
2023/06/17 12:36:17;;;;;;;4.28;3.58;;;26.80;78.90;;;;;;4960648;28;20047;-81
2023/06/17 12:38:45;;;;;;;5.25;3.38;;;26.80;78.30;;;;;;4956530;28;20059;-82
2023/06/17 12:41:12;;;;;;;5.47;4.05;;;26.80;79.60;;;;;;4958381;28;20062;-83
2023/06/17 12:43:39;;;;;;;6.55;3.85;;;26.90;79.00;;;;;;4957880;28;20126;-82
2023/06/17 12:46:06;;;;;;;5.97;4.03;;;26.90;78.90;;;;;;4961341;28;20047;-82
2023/06/17 12:48:33;;;;;;;8.60;3.58;;;27.00;78.90;;;;;;4955530;28;20106;-82
2023/06/17 12:51:00;;;;;;;5.07;3.40;;;27.10;78.90;;;;;;4969198;28;20050;-81